Time;durP1;ratioP1;P1;durP2;ratioP2;P2;SDS_P1;SDS_P2;PMS_P1;PMS_P2;Temp;Humidity;BMP_temperature;BMP_pressure;BME280_temperature;BME280_humidity;BME280_pressure;Samples;Min_cycle;Max_cycle;Signal;HPM_P1;HPM_P2
2022/01/11 00:00:01;;;;;;;;;;;;;;;-1.58;98.54;100611.22;4973841;28;19918;-88
2022/01/11 00:02:31;;;;;;;;;;;;;;;-1.64;98.36;100609.84;4957597;28;19918;-88
2022/01/11 00:04:56;;;;;;;;;;;;;;;-1.65;98.77;100628.09;4953946;29;19953;-88
2022/01/11 00:07:23;;;;;;;;;;;;;;;-1.67;98.87;100621.41;4954467;29;20004;-91
2022/01/11 00:09:50;;;;;;;;;;;;;;;-1.70;98.98;100639.22;4986516;28;19957;-89
2022/01/11 00:12:16;;;;;;;;;;;;;;;-1.70;99.17;100639.22;4972640;28;20013;-89
2022/01/11 00:14:41;;;;;;;;;;;;;;;-1.71;99.17;100639.53;4939096;28;20013;-88
2022/01/11 00:17:07;;;;;;;;;;;;;;;-1.69;99.20;100645.44;4973364;28;20014;-89
2022/01/11 00:19:33;;;;;;;;;;;;;;;-1.72;99.17;100640.69;4972834;28;19976;-88
2022/01/11 00:22:00;;;;;;;;;;;;;;;-1.77;99.38;100649.06;4941017;28;19925;-88
2022/01/11 00:24:30;;;;;;;;;;;;;;;-1.78;99.74;100652.94;4956586;28;19986;-88
2022/01/11 00:26:56;;;;;;;;;;;;;;;-1.78;99.63;100663.81;4955984;28;19922;-88
2022/01/11 00:29:21;;;;;;;;;;;;;;;-1.84;99.95;100663.22;4957070;28;19953;-88
2022/01/11 00:31:48;;;;;;;;;;;;;;;-1.86;100.00;100679.09;4956222;28;20351;-88
2022/01/11 00:34:16;;;;;;;;;;;;;;;-1.90;100.00;100651.75;4970355;28;20021;-88
2022/01/11 00:36:42;;;;;;;;;;;;;;;-1.89;100.00;100671.59;4988352;28;19918;-88
2022/01/11 00:39:08;;;;;;;;;;;;;;;-1.92;100.00;100675.78;4956641;28;20375;-89
2022/01/11 00:41:34;;;;;;;;;;;;;;;-1.92;100.00;100675.78;4939602;28;20446;-88
2022/01/11 00:43:59;;;;;;;;;;;;;;;-1.93;100.00;100685.06;4939928;28;19922;-89
2022/01/11 00:46:24;;;;;;;;;;;;;;;-1.95;100.00;100687.34;4972764;28;19918;-89
2022/01/11 00:48:50;;;;;;;;;;;;;;;-1.92;100.00;100694.81;4972596;28;20451;-90
2022/01/11 00:51:15;;;;;;;;;;;;;;;-1.94;100.00;100710.66;4987975;28;20391;-90
2022/01/11 00:53:41;;;;;;;;;;;;;;;-1.94;100.00;100699.03;4947131;28;19918;-89
2022/01/11 00:56:07;;;;;;;;;;;;;;;-1.97;100.00;100694.25;4955241;28;20371;-90
2022/01/11 00:58:32;;;;;;;;;;;;;;;-1.99;100.00;100704.66;4988539;28;19918;-90
2022/01/11 01:00:58;;;;;;;;;;;;;;;-1.99;100.00;100700.03;4955953;28;19942;-90
2022/01/11 01:03:24;;;;;;;;;;;;;;;-2.02;100.00;100697.97;4987707;28;19961;-89
2022/01/11 01:05:50;;;;;;;;;;;;;;;-2.01;100.00;100699.56;4972184;28;20359;-89
2022/01/11 01:08:17;;;;;;;;;;;;;;;-2.04;100.00;100705.69;4956051;28;19964;-90
2022/01/11 01:10:46;;;;;;;;;;;;;;;-2.04;100.00;100713.84;4956657;28;20427;-90
2022/01/11 01:13:18;;;;;;;;;;;;;;;-2.07;100.00;100709.06;4956136;28;19918;-91
2022/01/11 01:15:48;;;;;;;;;;;;;;;-2.05;100.00;100709.50;4955984;28;19972;-90
2022/01/11 01:18:23;;;;;;;;;;;;;;;-2.06;100.00;100707.91;4967899;28;20014;-89
2022/01/11 01:20:52;;;;;;;;;;;;;;;-2.05;100.00;100712.22;4968314;28;19918;-89
2022/01/11 01:23:17;;;;;;;;;;;;;;;-2.06;100.00;100713.34;4951088;28;20367;-89
2022/01/11 01:25:43;;;;;;;;;;;;;;;-2.04;100.00;100729.34;4957041;28;19925;-90
2022/01/11 01:28:09;;;;;;;;;;;;;;;-2.07;100.00;100721.88;4955678;28;20004;-89
2022/01/11 01:30:34;;;;;;;;;;;;;;;-2.08;100.00;100723.00;4968252;28;20387;-90
2022/01/11 01:33:00;;;;;;;;;;;;;;;-2.07;100.00;100717.22;4954930;28;19933;-91
2022/01/11 01:35:30;;;;;;;;;;;;;;;-2.09;100.00;100714.03;4970688;28;20000;-88
2022/01/11 01:37:55;;;;;;;;;;;;;;;-2.08;100.00;100729.22;4970985;28;19976;-89
2022/01/11 01:40:21;;;;;;;;;;;;;;;-2.09;100.00;100724.09;4971982;28;20009;-88
2022/01/11 01:42:47;;;;;;;;;;;;;;;-2.10;100.00;100728.75;4954407;28;20408;-89
2022/01/11 01:45:13;;;;;;;;;;;;;;;-2.11;100.00;100735.34;4940074;28;19925;-90
2022/01/11 01:47:38;;;;;;;;;;;;;;;-2.12;100.00;100736.47;4935082;29;19919;-89
2022/01/11 01:50:05;;;;;;;;;;;;;;;-2.12;100.00;100741.91;4961011;28;19925;-89
2022/01/11 01:52:32;;;;;;;;;;;;;;;-2.12;100.00;100744.63;4970929;28;19924;-89
2022/01/11 01:54:57;;;;;;;;;;;;;;;-2.12;100.00;100741.09;4955019;28;20005;-90
2022/01/11 01:57:22;;;;;;;;;;;;;;;-2.15;100.00;100749.94;4970958;28;20399;-90
2022/01/11 01:59:48;;;;;;;;;;;;;;;-2.16;100.00;100745.63;4954452;28;19918;-90
2022/01/11 02:02:14;;;;;;;;;;;;;;;-2.15;100.00;100742.56;5284995;22;20593;-90
2022/01/11 02:04:40;;;;;;;;;;;;;;;-2.14;100.00;100762.41;5012659;28;19921;-89
2022/01/11 02:07:05;;;;;;;;;;;;;;;-2.14;100.00;100756.97;5028057;28;19919;-90
2022/01/11 02:09:31;;;;;;;;;;;;;;;-2.14;100.00;100768.59;5014182;28;19971;-90
2022/01/11 02:11:56;;;;;;;;;;;;;;;-2.14;100.00;100762.41;4988688;28;20353;-89
2022/01/11 02:14:22;;;;;;;;;;;;;;;-2.13;100.00;100766.69;5020671;28;19913;-89
2022/01/11 02:16:47;;;;;;;;;;;;;;;-2.16;100.00;100768.16;5016270;28;20020;-89
2022/01/11 02:19:13;;;;;;;;;;;;;;;-2.20;100.00;100763.72;5017230;28;19939;-88
2022/01/11 02:21:39;;;;;;;;;;;;;;;-2.16;100.00;100768.16;5021826;28;20377;-90
2022/01/11 02:24:04;;;;;;;;;;;;;;;-2.17;100.00;100771.19;5024174;28;19917;-88
2022/01/11 02:26:33;;;;;;;;;;;;;;;-2.14;100.00;100770.56;5032131;28;20396;-90
2022/01/11 02:28:59;;;;;;;;;;;;;;;-2.17;100.00;100766.56;5013574;28;19927;-90
2022/01/11 02:31:24;;;;;;;;;;;;;;;-2.18;100.00;100762.25;5013319;28;20094;-89
2022/01/11 02:33:58;;;;;;;;;;;;;;;-2.17;100.00;100766.56;5024395;28;19916;-90
2022/01/11 02:36:42;;;;;;;;;;;;;;;-2.17;100.00;100766.56;5046807;28;19923;-90
2022/01/11 02:39:24;;;;;;;;;;;;;;;-2.19;100.00;100763.41;5028406;28;20370;-87
2022/01/11 02:41:54;;;;;;;;;;;;;;;-2.24;100.00;100762.78;5028270;28;19923;-87
2022/01/11 02:44:25;;;;;;;;;;;;;;;-2.23;100.00;100772.53;5013498;28;19956;-87
2022/01/11 02:46:51;;;;;;;;;;;;;;;-2.21;100.00;100770.28;5020977;28;19964;-87
2022/01/11 02:49:17;;;;;;;;;;;;;;;-2.21;100.00;100765.63;5006431;28;19912;-86
2022/01/11 02:51:48;;;;;;;;;;;;;;;-2.22;100.00;100777.63;5029879;28;19920;-87
2022/01/11 02:54:13;;;;;;;;;;;;;;;-2.22;100.00;100769.47;5028807;28;20013;-88
2022/01/11 02:56:41;;;;;;;;;;;;;;;-2.21;100.00;100776.50;5034187;28;19968;-88
2022/01/11 02:59:07;;;;;;;;;;;;;;;-2.21;100.00;100784.66;5020865;28;20503;-87
2022/01/11 03:01:32;;;;;;;;;;;;;;;-2.22;100.00;100788.50;5025539;28;20340;-86
2022/01/11 03:03:59;;;;;;;;;;;;;;;-2.23;100.00;100788.84;4997189;28;19924;-87
2022/01/11 03:06:24;;;;;;;;;;;;;;;-2.24;100.00;100796.19;4997945;28;20434;-87
2022/01/11 03:08:50;;;;;;;;;;;;;;;-2.22;100.00;100788.50;4979911;28;20039;-88
2022/01/11 03:11:19;;;;;;;;;;;;;;;-2.23;100.00;100795.09;4993830;28;20441;-87
2022/01/11 03:13:46;;;;;;;;;;;;;;;-2.26;100.00;100798.44;4981074;28;19924;-88
2022/01/11 03:16:12;;;;;;;;;;;;;;;-2.27;100.00;100794.16;4969157;28;19918;-87
2022/01/11 03:18:38;;;;;;;;;;;;;;;-2.27;100.00;100799.59;4980484;28;19917;-88
2022/01/11 03:21:05;;;;;;;;;;;;;;;-2.28;100.00;100808.88;4978189;28;19925;-90
2022/01/11 03:23:31;;;;;;;;;;;;;;;-2.28;100.00;100813.50;4974401;28;19921;-90
2022/01/11 03:25:56;;;;;;;;;;;;;;;-2.27;100.00;100820.53;4980598;28;19987;-89
2022/01/11 03:28:24;;;;;;;;;;;;;;;-2.30;100.00;100818.50;4979682;28;19917;-89
2022/01/11 03:30:51;;;;;;;;;;;;;;;-2.32;100.00;100821.53;4981036;28;19929;-88
2022/01/11 03:33:16;;;;;;;;;;;;;;;-2.31;100.00;100828.56;4997183;28;19917;-89
2022/01/11 03:35:45;;;;;;;;;;;;;;;-2.32;100.00;100834.31;4981733;28;19917;-90
2022/01/11 03:38:12;;;;;;;;;;;;;;;-2.30;100.00;100830.13;4996009;28;19924;-87
2022/01/11 03:40:38;;;;;;;;;;;;;;;-2.30;100.00;100838.28;4977413;28;20043;-88
2022/01/11 03:43:06;;;;;;;;;;;;;;;-2.33;100.00;100832.72;4981931;28;19991;-87
2022/01/11 03:45:31;;;;;;;;;;;;;;;-2.31;100.00;100831.28;4980771;28;20398;-87
2022/01/11 03:48:02;;;;;;;;;;;;;;;-2.33;100.00;100822.66;4981253;28;19917;-88
2022/01/11 03:50:30;;;;;;;;;;;;;;;-2.36;100.00;100834.19;4978738;28;19917;-87
2022/01/11 03:52:59;;;;;;;;;;;;;;;-2.37;100.00;100838.03;5010744;28;19917;-88
2022/01/11 03:55:46;;;;;;;;;;;;;;;-2.34;100.00;100840.06;4970249;28;19922;-88
2022/01/11 03:58:14;;;;;;;;;;;;;;;-2.34;100.00;100845.50;4982751;28;20362;-89
2022/01/11 04:00:40;;;;;;;;;;;;;;;-2.37;100.00;100844.25;4976153;28;19918;-89
2022/01/11 04:03:05;;;;;;;;;;;;;;;-2.36;100.00;100850.50;4991706;28;19921;-89
2022/01/11 04:05:31;;;;;;;;;;;;;;;-2.36;100.00;100845.06;5009391;28;20026;-90
2022/01/11 04:07:57;;;;;;;;;;;;;;;-2.32;100.00;100851.41;5031596;28;19960;-90
2022/01/11 04:10:22;;;;;;;;;;;;;;;-2.36;100.00;100856.72;5019062;28;19917;-91
2022/01/11 04:12:50;;;;;;;;;;;;;;;-2.38;100.00;100842.66;4998753;28;20044;-90
2022/01/11 04:15:15;;;;;;;;;;;;;;;-2.36;100.00;100847.78;4996370;28;19940;-88
2022/01/11 04:17:40;;;;;;;;;;;;;;;-2.39;100.00;100849.25;5015621;28;20012;-88
2022/01/11 04:20:07;;;;;;;;;;;;;;;-2.39;100.00;100857.38;5013992;28;19921;-88
2022/01/11 04:22:35;;;;;;;;;;;;;;;-2.41;100.00;100850.69;4981435;28;19921;-88
2022/01/11 04:25:01;;;;;;;;;;;;;;;-2.44;100.00;100865.72;5026463;28;19917;-88
2022/01/11 04:27:28;;;;;;;;;;;;;;;-2.44;100.00;100857.56;4997043;28;19913;-88
2022/01/11 04:29:53;;;;;;;;;;;;;;;-2.44;100.00;100854.84;4985630;28;19917;-88
2022/01/11 04:32:20;;;;;;;;;;;;;;;-2.43;100.00;100867.31;4995712;28;19926;-88
2022/01/11 04:34:45;;;;;;;;;;;;;;;-2.43;100.00;100856.47;5014651;28;20420;-88
2022/01/11 04:37:11;;;;;;;;;;;;;;;-2.45;100.00;100853.25;4982043;28;19924;-87
2022/01/11 04:39:36;;;;;;;;;;;;;;;-2.43;100.00;100861.09;5011894;28;19917;-88
2022/01/11 04:42:03;;;;;;;;;;;;;;;-2.42;100.00;100862.66;5011655;28;20020;-89
2022/01/11 04:44:29;;;;;;;;;;;;;;;-2.42;100.00;100868.09;4979724;28;20008;-88
2022/01/11 04:46:54;;;;;;;;;;;;;;;-2.43;99.65;100877.38;5019105;28;19917;-87
2022/01/11 04:49:20;;;;;;;;;;;;;;;-2.43;100.00;100877.38;4982929;28;20404;-88
2022/01/11 04:51:46;;;;;;;;;;;;;;;-2.40;99.63;100882.97;4994872;28;19921;-89
2022/01/11 04:54:12;;;;;;;;;;;;;;;-2.43;99.59;100888.25;5014378;28;19924;-88
2022/01/11 04:56:38;;;;;;;;;;;;;;;-2.42;99.68;100893.34;5005805;28;19917;-89
2022/01/11 04:59:03;;;;;;;;;;;;;;;-2.41;99.76;100905.00;4996280;28;20454;-89
2022/01/11 05:01:30;;;;;;;;;;;;;;;-2.41;99.30;100896.88;5009404;28;20294;-88
2022/01/11 05:03:56;;;;;;;;;;;;;;;-2.45;99.37;100906.78;5004880;28;19924;-89
2022/01/11 05:06:21;;;;;;;;;;;;;;;-2.43;99.00;100912.72;5014199;28;19921;-88
2022/01/11 05:08:48;;;;;;;;;;;;;;;-2.41;99.14;100915.88;5017251;28;19917;-88
2022/01/11 05:11:14;;;;;;;;;;;;;;;-2.42;99.02;100927.88;4995494;28;19921;-90
2022/01/11 05:13:39;;;;;;;;;;;;;;;-2.45;98.92;100923.09;5026536;28;20394;-88
2022/01/11 05:16:19;;;;;;;;;;;;;;;-2.45;99.10;100923.09;4998178;28;19925;-90
2022/01/11 05:18:45;;;;;;;;;;;;;;;-2.44;98.78;100935.56;5012833;28;20354;-90
2022/01/11 05:21:10;;;;;;;;;;;;;;;-2.44;98.89;100928.22;5014564;28;19917;-89
2022/01/11 05:23:36;;;;;;;;;;;;;;;-2.47;98.65;100928.88;5005780;28;20390;-91
2022/01/11 05:26:02;;;;;;;;;;;;;;;-2.44;98.59;100938.28;4985982;28;19968;-90
2022/01/11 05:28:28;;;;;;;;;;;;;;;-2.43;98.58;100932.53;5005650;28;20297;-90
2022/01/11 05:30:54;;;;;;;;;;;;;;;-2.44;98.69;100941.00;4988820;28;20007;-90
2022/01/11 05:33:19;;;;;;;;;;;;;;;-2.46;98.41;100937.78;5013085;28;19921;-90
2022/01/11 05:35:46;;;;;;;;;;;;;;;-2.43;98.42;100939.88;4997578;28;19917;-90
2022/01/11 05:38:11;;;;;;;;;;;;;;;-2.43;98.55;100945.31;5015538;28;19918;-91
2022/01/11 05:40:37;;;;;;;;;;;;;;;-2.45;98.41;100944.84;5028697;28;19971;-89
2022/01/11 05:43:07;;;;;;;;;;;;;;;-2.44;98.28;100941.81;4989036;28;19952;-89
2022/01/11 05:45:33;;;;;;;;;;;;;;;-2.48;98.45;100940.06;5019776;28;19917;-88
2022/01/11 05:48:00;;;;;;;;;;;;;;;-2.47;98.55;100933.50;5010745;28;20601;-90
2022/01/11 05:50:26;;;;;;;;;;;;;;;-2.46;98.16;100938.59;5010408;28;20000;-90
2022/01/11 05:52:52;;;;;;;;;;;;;;;-2.46;98.13;100932.34;4996545;28;20008;-89
2022/01/11 05:55:18;;;;;;;;;;;;;;;-2.46;98.26;100933.16;4993219;28;19983;-89
2022/01/11 05:57:44;;;;;;;;;;;;;;;-2.42;98.24;100938.72;4994874;28;20381;-89
2022/01/11 06:00:11;;;;;;;;;;;;;;;-2.43;98.30;100937.16;5029295;28;19917;-89
2022/01/11 06:02:41;;;;;;;;;;;;;;;-2.45;97.89;100918.47;5027586;28;20023;-91
2022/01/11 06:05:09;;;;;;;;;;;;;;;-2.45;97.95;100928.53;4997115;28;19925;-89
2022/01/11 06:07:37;;;;;;;;;;;;;;;-2.49;98.40;100933.03;4996114;28;19917;-89
2022/01/11 06:10:03;;;;;;;;;;;;;;;-2.51;98.50;100940.72;4996545;28;19936;-89
2022/01/11 06:12:31;;;;;;;;;;;;;;;-2.46;98.31;100943.22;4990254;28;19913;-88
2022/01/11 06:14:56;;;;;;;;;;;;;;;-2.49;98.48;100938.47;5011910;28;19924;-89
2022/01/11 06:17:21;;;;;;;;;;;;;;;-2.48;98.66;100945.50;4993109;28;19921;-89
2022/01/11 06:19:47;;;;;;;;;;;;;;;-2.52;98.72;100956.22;4989466;28;20609;-90
2022/01/11 06:22:21;;;;;;;;;;;;;;;-2.56;98.75;100947.13;4991441;28;19927;-90
2022/01/11 06:24:47;;;;;;;;;;;;;;;-2.51;98.45;100962.44;5002212;28;20008;-89
2022/01/11 06:27:13;;;;;;;;;;;;;;;-2.50;98.27;100961.31;5001192;28;19975;-89
2022/01/11 06:29:38;;;;;;;;;;;;;;;-2.49;98.18;100960.19;4979562;28;20019;-90
2022/01/11 06:32:04;;;;;;;;;;;;;;;-2.49;98.30;100976.50;4991521;28;19960;-88
2022/01/11 06:34:30;;;;;;;;;;;;;;;-2.49;97.99;100981.94;4995316;28;19920;-90
2022/01/11 06:36:56;;;;;;;;;;;;;;;-2.50;98.15;100983.03;5011204;28;20305;-88
2022/01/11 06:39:21;;;;;;;;;;;;;;;-2.51;98.33;100985.00;4991932;28;19924;-89
2022/01/11 06:41:47;;;;;;;;;;;;;;;-2.52;97.95;100994.25;4995027;28;19972;-90
2022/01/11 06:44:15;;;;;;;;;;;;;;;-2.50;97.86;100991.19;5004599;28;19917;-89
2022/01/11 06:46:42;;;;;;;;;;;;;;;-2.49;97.28;100990.88;4991893;28;19925;-89
2022/01/11 06:49:11;;;;;;;;;;;;;;;-2.44;96.55;101000.78;4991170;28;20028;-90
2022/01/11 06:51:37;;;;;;;;;;;;;;;-2.45;96.69;101010.03;5010031;28;20426;-90
2022/01/11 06:54:02;;;;;;;;;;;;;;;-2.50;96.66;100996.63;5015847;28;19921;-88
2022/01/11 06:56:28;;;;;;;;;;;;;;;-2.51;96.77;101000.47;5006495;28;20382;-89
2022/01/11 06:59:01;;;;;;;;;;;;;;;-2.47;96.54;101002.22;4994846;28;19924;-90
2022/01/11 07:01:27;;;;;;;;;;;;;;;-2.41;96.33;101014.50;4994594;28;19917;-89
2022/01/11 07:03:58;;;;;;;;;;;;;;;-2.38;96.20;101013.03;4971434;28;19921;-90
2022/01/11 07:06:27;;;;;;;;;;;;;;;-2.34;96.32;101022.13;5009313;28;19921;-90
2022/01/11 07:08:53;;;;;;;;;;;;;;;-2.32;96.28;101019.91;4967794;28;19917;-89
2022/01/11 07:11:21;;;;;;;;;;;;;;;-2.28;95.97;101020.84;4976001;28;19956;-89
2022/01/11 07:13:47;;;;;;;;;;;;;;;-2.26;95.87;101015.84;4976367;28;20373;-89
2022/01/11 07:16:13;;;;;;;;;;;;;;;-2.26;95.75;101017.81;4992680;28;19928;-90
2022/01/11 07:18:38;;;;;;;;;;;;;;;-2.23;95.73;101011.69;4984517;28;19922;-90
2022/01/11 07:21:04;;;;;;;;;;;;;;;-2.21;95.60;101031.19;4992637;28;19917;-90
2022/01/11 07:23:32;;;;;;;;;;;;;;;-2.19;95.65;101029.75;4987733;28;19967;-89
2022/01/11 07:25:58;;;;;;;;;;;;;;;-2.14;95.54;101032.25;4977080;28;19917;-90
2022/01/11 07:28:26;;;;;;;;;;;;;;;-2.13;95.11;101036.59;4994103;28;19917;-90
2022/01/11 07:30:52;;;;;;;;;;;;;;;-2.10;95.62;101040.59;4994054;28;19918;-90
2022/01/11 07:33:17;;;;;;;;;;;;;;;-2.09;95.31;101039.44;4987547;28;20294;-89
2022/01/11 07:35:46;;;;;;;;;;;;;;;-2.06;95.38;101038.81;4985192;28;20267;-89
2022/01/11 07:38:12;;;;;;;;;;;;;;;-2.02;95.50;101048.66;4971752;28;19929;-88
2022/01/11 07:40:38;;;;;;;;;;;;;;;-1.99;94.74;101053.47;4995823;28;19918;-90
2022/01/11 07:43:15;;;;;;;;;;;;;;;-1.93;95.37;101059.50;4974477;28;19918;-90
2022/01/11 07:45:51;;;;;;;;;;;;;;;-1.96;94.39;101060.97;4955982;28;19922;-90
2022/01/11 07:48:18;;;;;;;;;;;;;;;-1.92;94.37;101061.91;4973023;28;19921;-90
2022/01/11 07:50:51;;;;;;;;;;;;;;;-1.91;93.66;101057.25;4972537;28;19925;-89
2022/01/11 07:53:16;;;;;;;;;;;;;;;-1.89;93.60;101066.69;4995380;28;19918;-90
2022/01/11 07:55:47;;;;;;;;;;;;;;;-1.88;93.15;101062.84;4983245;28;19918;-89
2022/01/11 07:58:15;;;;;;;;;;;;;;;-1.85;93.58;101060.56;4973843;28;19924;-89
2022/01/11 08:00:42;;;;;;;;;;;;;;;-1.83;92.77;101066.50;4977799;28;19913;-89
2022/01/11 08:03:12;;;;;;;;;;;;;;;-1.78;92.40;101069.03;4986174;28;19928;-91
2022/01/11 08:05:50;;;;;;;;;;;;;;;-1.76;91.83;101069.50;4989151;28;19921;-89
2022/01/11 08:08:16;;;;;;;;;;;;;;;-1.69;92.14;101077.91;5012216;28;19983;-89
2022/01/11 08:10:42;;;;;;;;;;;;;;;-1.69;91.75;101089.59;4996255;28;20362;-89
2022/01/11 08:13:10;;;;;;;;;;;;;;;-1.71;91.34;101083.72;4996145;28;19940;-88
2022/01/11 08:15:38;;;;;;;;;;;;;;;-1.70;90.81;101090.75;4996949;28;19963;-90
2022/01/11 08:18:04;;;;;;;;;;;;;;;-1.70;90.43;101098.09;4994912;28;19918;-89
2022/01/11 08:20:30;;;;;;;;;;;;;;;-1.64;89.68;101107.66;4993109;28;19920;-88
2022/01/11 08:22:59;;;;;;;;;;;;;;;-1.60;90.87;101100.44;4993949;28;19945;-89
2022/01/11 08:25:24;;;;;;;;;;;;;;;-1.57;89.42;101105.22;4992250;28;19914;-90
2022/01/11 08:27:50;;;;;;;;;;;;;;;-1.50;89.76;101111.75;4994982;28;20374;-89
2022/01/11 08:30:15;;;;;;;;;;;;;;;-1.46;89.46;101114.59;4995675;28;19984;-90
2022/01/11 08:32:44;;;;;;;;;;;;;;;-1.40;89.70;101118.72;4994658;28;19921;-90
2022/01/11 08:35:10;;;;;;;;;;;;;;;-1.36;88.79;101116.94;4994314;28;19920;-90
2022/01/11 08:37:36;;;;;;;;;;;;;;;-1.27;88.78;101119.59;4994656;28;19926;-90
2022/01/11 08:40:01;;;;;;;;;;;;;;;-1.36;88.33;101130.53;5010169;28;19963;-90
2022/01/11 08:42:29;;;;;;;;;;;;;;;-1.33;88.72;101132.59;4994981;28;19925;-90
2022/01/11 08:44:54;;;;;;;;;;;;;;;-1.27;88.62;101131.28;4994753;28;19917;-90
2022/01/11 08:47:30;;;;;;;;;;;;;;;-1.13;88.28;101131.03;4992491;28;19918;-89
2022/01/11 08:49:57;;;;;;;;;;;;;;;-1.17;87.45;101122.69;5010701;28;20003;-89
2022/01/11 08:52:23;;;;;;;;;;;;;;;-1.22;87.00;101135.72;5011144;28;20375;-89
2022/01/11 08:54:50;;;;;;;;;;;;;;;-1.24;87.03;101136.06;4995347;28;19933;-89
2022/01/11 08:57:19;;;;;;;;;;;;;;;-1.21;85.60;101146.28;4995525;28;19924;-89
2022/01/11 08:59:45;;;;;;;;;;;;;;;-1.25;85.63;101145.34;4995859;28;19913;-88
2022/01/11 09:02:11;;;;;;;;;;;;;;;-1.23;84.56;101140.38;5002619;28;19976;-88
2022/01/11 09:04:40;;;;;;;;;;;;;;;-1.18;83.75;101144.84;4989698;28;19925;-89
2022/01/11 09:07:28;;;;;;;;;;;;;;;-1.16;83.70;101150.72;5016753;28;20007;-88
2022/01/11 09:09:56;;;;;;;;;;;;;;;-1.09;84.00;101159.97;4997133;28;19917;-88
2022/01/11 09:12:22;;;;;;;;;;;;;;;-1.04;82.58;101164.41;4978023;28;20015;-88
2022/01/11 09:14:49;;;;;;;;;;;;;;;-1.04;82.33;101172.59;4995236;28;19940;-88
2022/01/11 09:17:16;;;;;;;;;;;;;;;-1.01;82.56;101150.94;4989321;28;19924;-88
2022/01/11 09:19:43;;;;;;;;;;;;;;;-0.93;82.25;101169.13;4997314;28;20011;-89
2022/01/11 09:22:11;;;;;;;;;;;;;;;-0.88;81.91;101170.06;4997226;28;19921;-89
2022/01/11 09:24:37;;;;;;;;;;;;;;;-0.78;81.44;101158.78;5011772;28;19923;-88
2022/01/11 09:27:04;;;;;;;;;;;;;;;-0.73;80.86;101172.19;4980819;28;19917;-89
2022/01/11 09:29:36;;;;;;;;;;;;;;;-0.67;80.61;101181.75;4997003;28;19920;-88
2022/01/11 09:32:03;;;;;;;;;;;;;;;-0.59;80.25;101161.81;4989948;28;20358;-89
2022/01/11 09:34:30;;;;;;;;;;;;;;;-0.62;79.34;101157.03;5008479;28;20275;-88
2022/01/11 09:36:57;;;;;;;;;;;;;;;-0.62;78.73;101170.66;4988994;28;19918;-89
2022/01/11 09:39:23;;;;;;;;;;;;;;;-0.60;79.50;101160.19;4996066;28;20270;-89
2022/01/11 09:41:49;;;;;;;;;;;;;;;-0.54;78.89;101169.78;4996856;28;19940;-89
2022/01/11 09:44:16;;;;;;;;;;;;;;;-0.46;78.62;101166.19;4994722;28;19971;-89
2022/01/11 09:46:41;;;;;;;;;;;;;;;-0.41;79.03;101163.25;4988702;28;19921;-88
2022/01/11 09:49:07;;;;;;;;;;;;;;;-0.34;77.41;101171.66;4999504;28;20040;-89
2022/01/11 09:51:36;;;;;;;;;;;;;;;-0.40;76.10;101153.91;4997338;28;20007;-88
2022/01/11 09:54:05;;;;;;;;;;;;;;;-0.31;76.81;101175.66;4994197;28;20466;-88
2022/01/11 09:56:38;;;;;;;;;;;;;;;-0.22;76.22;101177.16;4991362;28;19925;-87
2022/01/11 09:59:04;;;;;;;;;;;;;;;-0.09;76.12;101176.06;4990891;28;20300;-91
2022/01/11 10:01:48;;;;;;;;;;;;;;;0.07;75.82;101173.47;4997180;28;20008;-92
2022/01/11 10:04:37;;;;;;;;;;;;;;;0.22;73.97;101180.19;5014079;28;19917;-90
2022/01/11 10:07:20;;;;;;;;;;;;;;;0.26;73.68;101175.66;5014371;28;20368;-90
2022/01/11 10:09:48;;;;;;;;;;;;;;;0.32;73.90;101174.31;4995488;28;19917;-91
2022/01/11 10:12:14;;;;;;;;;;;;;;;0.40;72.47;101176.13;4989705;28;20056;-90
2022/01/11 10:14:44;;;;;;;;;;;;;;;0.46;72.77;101177.47;5013088;28;19999;-90
2022/01/11 10:17:19;;;;;;;;;;;;;;;0.64;72.27;101170.66;4993822;28;20012;-89
2022/01/11 10:20:00;;;;;;;;;;;;;;;0.69;71.34;101183.28;4993361;28;19918;-91
2022/01/11 10:22:27;;;;;;;;;;;;;;;0.51;72.12;101179.19;5013666;28;19917;-89
2022/01/11 10:24:53;;;;;;;;;;;;;;;0.52;72.45;101188.97;4997377;28;19939;-89
2022/01/11 10:27:28;;;;;;;;;;;;;;;0.54;72.63;101184.75;4998507;28;20309;-89
2022/01/11 10:29:54;;;;;;;;;;;;;;;0.43;71.47;101191.81;4997522;28;19917;-88
2022/01/11 10:32:35;;;;;;;;;;;;;;;0.56;73.43;101198.88;4997848;28;20260;-89
2022/01/11 10:35:11;;;;;;;;;;;;;;;0.88;72.66;101187.00;4998147;28;20134;-90
2022/01/11 10:37:39;;;;;;;;;;;;;;;1.06;71.79;101184.00;4997584;28;19917;-90
2022/01/11 10:40:07;;;;;;;;;;;;;;;1.13;69.42;101181.50;5008731;28;20398;-89
2022/01/11 10:42:34;;;;;;;;;;;;;;;1.11;69.41;101172.84;5016825;28;19917;-89
2022/01/11 10:45:05;;;;;;;;;;;;;;;1.10;69.72;101182.97;5016989;28;19963;-90
2022/01/11 10:47:34;;;;;;;;;;;;;;;1.21;69.69;101164.97;5017421;28;19940;-89
2022/01/11 10:50:27;;;;;;;;;;;;;;;1.26;69.50;101183.84;5016611;28;19917;-90
2022/01/11 10:52:53;;;;;;;;;;;;;;;1.16;68.26;101180.81;4993968;28;19940;-90
2022/01/11 10:55:23;;;;;;;;;;;;;;;1.01;68.52;101165.94;4977838;28;20004;-90
2022/01/11 10:57:50;;;;;;;;;;;;;;;0.83;69.11;101179.06;4977770;28;19921;-89
2022/01/11 11:00:18;;;;;;;;;;;;;;;0.77;68.95;101158.56;4977520;28;19918;-89
2022/01/11 11:02:46;;;;;;;;;;;;;;;0.84;69.53;101174.38;4984801;28;20500;-90
2022/01/11 11:05:28;;;;;;;;;;;;;;;0.85;69.73;101165.06;4973709;28;19983;-90
2022/01/11 11:07:58;;;;;;;;;;;;;;;0.99;69.34;101156.47;4974307;28;19924;-91
2022/01/11 11:10:32;;;;;;;;;;;;;;;1.04;69.89;101156.25;4973928;28;19928;-89
2022/01/11 11:12:58;;;;;;;;;;;;;;;1.00;69.54;101149.88;4994077;28;19918;-91
2022/01/11 11:15:36;;;;;;;;;;;;;;;1.03;69.25;101146.44;4980635;28;19918;-88
2022/01/11 11:18:03;;;;;;;;;;;;;;;0.80;69.47;101149.69;4981358;28;20379;-91
2022/01/11 11:20:38;;;;;;;;;;;;;;;0.57;70.65;101175.88;4981796;28;20263;-90
2022/01/11 11:23:04;;;;;;;;;;;;;;;0.30;70.33;101191.00;4981400;28;19940;-90
2022/01/11 11:25:29;;;;;;;;;;;;;;;0.15;71.53;101194.41;4997117;28;19940;-90
2022/01/11 11:27:55;;;;;;;;;;;;;;;0.41;71.73;101196.81;4997253;28;20379;-91
2022/01/11 11:30:21;;;;;;;;;;;;;;;0.63;70.68;101190.91;4996012;28;19925;-90
2022/01/11 11:32:46;;;;;;;;;;;;;;;0.81;70.03;101203.16;4963219;28;19921;-91
2022/01/11 11:35:12;;;;;;;;;;;;;;;0.98;69.22;101193.13;4995577;28;19964;-90
2022/01/11 11:37:38;;;;;;;;;;;;;;;1.13;69.84;101198.69;4995535;28;19918;-90
2022/01/11 11:40:08;;;;;;;;;;;;;;;1.25;68.66;101200.59;4979787;28;19918;-91
2022/01/11 11:42:33;;;;;;;;;;;;;;;1.40;69.25;101200.66;4995773;28;19917;-91
2022/01/11 11:44:59;;;;;;;;;;;;;;;1.61;68.70;101195.00;4977605;28;19996;-90
2022/01/11 11:47:32;;;;;;;;;;;;;;;1.62;67.68;101185.63;4979512;28;19952;-91
2022/01/11 11:49:58;;;;;;;;;;;;;;;1.42;67.26;101189.38;4995238;28;19917;-90
2022/01/11 11:52:24;;;;;;;;;;;;;;;1.49;67.62;101184.13;4995678;28;19921;-91
2022/01/11 11:54:49;;;;;;;;;;;;;;;1.48;67.64;101184.47;5013010;28;20442;-89
2022/01/11 11:57:15;;;;;;;;;;;;;;;1.49;67.25;101184.13;5012860;28;19918;-91
2022/01/11 11:59:41;;;;;;;;;;;;;;;1.55;67.07;101190.91;4985555;28;19917;-91
2022/01/11 12:02:06;;;;;;;;;;;;;;;1.52;66.64;101188.88;5006588;28;20282;-91
2022/01/11 12:04:31;;;;;;;;;;;;;;;1.43;67.58;101182.75;5015986;28;19917;-91
2022/01/11 12:06:59;;;;;;;;;;;;;;;1.59;67.69;101180.88;5033673;28;19935;-92
2022/01/11 12:09:31;;;;;;;;;;;;;;;1.65;67.15;101176.75;4999713;28;19917;-91
2022/01/11 12:11:59;;;;;;;;;;;;;;;1.54;67.45;101183.06;5017062;28;19924;-93
2022/01/11 12:14:27;;;;;;;;;;;;;;;1.59;67.69;101167.19;5033587;28;19917;-91
2022/01/11 12:16:53;;;;;;;;;;;;;;;1.61;67.18;101159.44;5033326;28;20003;-91
2022/01/11 12:19:37;;;;;;;;;;;;;;;1.63;67.32;101153.63;5031518;28;19995;-90
2022/01/11 12:22:08;;;;;;;;;;;;;;;1.25;67.34;101154.13;5031036;28;20015;-91
2022/01/11 12:24:40;;;;;;;;;;;;;;;1.12;68.19;101149.84;5033403;28;19980;-90
2022/01/11 12:27:08;;;;;;;;;;;;;;;1.15;68.25;101149.16;5031322;28;19998;-90
2022/01/11 12:29:34;;;;;;;;;;;;;;;1.24;67.60;101144.34;5034957;28;19999;-91
2022/01/11 12:32:01;;;;;;;;;;;;;;;1.33;68.07;101134.06;5035503;28;19963;-90
2022/01/11 12:34:45;;;;;;;;;;;;;;;1.47;67.99;101126.25;5034570;28;19923;-89
2022/01/11 12:37:14;;;;;;;;;;;;;;;1.48;67.10;101129.78;5035075;28;19920;-88